Terminal Aerodrome Forecast
Issued by NWS

Home | Current Version | Previous Version | Text Only | Print | Product List | Glossary On
Versions: 1 2 3 4 5 6 7 8 9 10 11 12 13 14 15 16 17 18 19 20 21 22 23 24 25 26 27 28 29 30 31 32 33 34 35
000
FTUS41 KBOX 270212 AAA
TAFACK
TAF AMD
KACK 270212Z 2702/2724 06035G49KT 3/4SM -SN BLSN OVC006
     FM270300 05025G55KT 1/2SM SN BLSN OVC008
     FM270500 04035G56KT 1/2SM SNRA BLSN OVC008 WS020/05055KT
     FM270700 04041G62KT 1/2SM +RASN BLSN OVC003 WS020/05075KT
     FM271400 02038G49KT 1SM -RA OVC003 WS020/03015KT=

USA.gov is the U.S. government's official web portal to all federal, state and local government web resources and services.